Time;durP1;ratioP1;P1;durP2;ratioP2;P2;SDS_P1;SDS_P2;PMS_P1;PMS_P2;Temp;Humidity;BMP_temperature;BMP_pressure;BME280_temperature;BME280_humidity;BME280_pressure;Samples;Min_cycle;Max_cycle;Signal;HPM_P1;HPM_P2
2023/08/31 00:01:06;;;;;;;;;2.00;2.00;;;;;23.66;79.92;100572.69;2117668;27;46291;-56
2023/08/31 00:02:07;;;;;;;;;3.00;2.25;;;;;23.65;80.32;100580.94;2115092;27;46633;-54
2023/08/31 00:03:08;;;;;;;;;5.00;4.67;;;;;23.66;80.53;100577.25;2115906;27;46401;-54
2023/08/31 00:04:14;;;;;;;;;1.75;1.75;;;;;23.65;80.53;100579.09;2111705;27;46572;-55
2023/08/31 00:05:14;;;;;;;;;2.50;2.50;;;;;23.66;80.37;100577.25;2116382;27;45211;-52
2023/08/31 00:06:15;;;;;;;;;3.33;3.00;;;;;23.66;80.23;100569.13;2113191;27;46617;-54
2023/08/31 00:07:16;;;;;;;;;6.67;6.33;;;;;23.67;80.38;100576.25;2119526;27;46615;-54
2023/08/31 00:08:17;;;;;;;;;3.33;2.67;;;;;23.67;80.29;100582.53;2122835;27;46857;-55
2023/08/31 00:09:18;;;;;;;;;4.25;3.50;;;;;23.67;80.57;100576.25;2118085;27;46561;-51
2023/08/31 00:10:19;;;;;;;;;1.00;1.00;;;;;23.67;80.20;100577.13;2108862;27;46479;-54
2023/08/31 00:11:20;;;;;;;;;4.00;3.67;;;;;23.67;80.05;100574.41;2112742;27;46837;-53
2023/08/31 00:12:22;;;;;;;;;3.00;3.00;;;;;23.66;80.23;100575.41;2113819;27;47349;-55
2023/08/31 00:13:22;;;;;;;;;2.00;2.00;;;;;23.66;80.36;100575.41;2116405;27;46315;-56
2023/08/31 00:14:23;;;;;;;;;6.33;4.33;;;;;23.66;80.30;100583.53;2112815;27;46726;-56
2023/08/31 00:15:24;;;;;;;;;4.00;3.75;;;;;23.66;80.62;100588.06;2113142;27;46213;-51
2023/08/31 00:16:25;;;;;;;;;2.00;2.00;;;;;23.64;80.44;100585.50;2121905;27;46557;-53
2023/08/31 00:17:26;;;;;;;;;3.00;3.00;;;;;23.65;80.47;100584.50;2121927;27;46340;-54
2023/08/31 00:18:26;;;;;;;;;7.00;4.67;;;;;23.65;80.35;100584.50;2122316;27;46012;-56
2023/08/31 00:19:26;;;;;;;;;3.00;3.00;;;;;23.66;80.73;100582.66;2121787;27;46662;-54
2023/08/31 00:20:30;;;;;;;;;4.00;4.00;;;;;23.65;80.53;100587.22;2111548;27;46575;-55
2023/08/31 00:21:30;;;;;;;;;3.75;3.75;;;;;23.66;80.60;100591.66;2113053;27;46784;-55
2023/08/31 00:22:30;;;;;;;;;2.33;1.00;;;;;23.64;80.75;100585.50;2121654;27;46584;-55
2023/08/31 00:23:31;;;;;;;;;4.67;3.00;;;;;23.66;80.58;100579.94;2121016;27;45370;-55
2023/08/31 00:24:33;;;;;;;;;3.00;3.00;;;;;23.66;80.70;100579.94;2121882;27;46144;-54
2023/08/31 00:25:33;;;;;;;;;2.50;2.50;;;;;23.67;80.58;100581.69;2122001;27;45765;-55
2023/08/31 00:26:34;;;;;;;;;2.00;2.00;;;;;23.68;80.73;100580.69;2116905;27;46362;-54
2023/08/31 00:27:37;;;;;;;;;3.25;3.00;;;;;23.66;80.67;100580.81;2113447;27;46379;-54
2023/08/31 00:28:38;;;;;;;;;3.00;3.00;;;;;23.67;80.87;100582.53;2119065;27;46537;-55
2023/08/31 00:29:38;;;;;;;;;4.25;3.00;;;;;23.68;80.82;100584.25;2119627;27;46789;-55
2023/08/31 00:30:39;;;;;;;;;3.00;3.00;;;;;23.69;80.53;100588.69;2122090;27;45916;-54
2023/08/31 00:31:39;;;;;;;;;2.00;2.00;;;;;23.67;81.03;100577.13;2121618;27;46590;-55
2023/08/31 00:32:42;;;;;;;;;1.67;1.67;;;;;23.68;80.79;100580.69;2104142;28;46884;-56
2023/08/31 00:33:43;;;;;;;;;3.25;3.25;;;;;23.68;80.93;100588.81;2104896;27;46674;-54
2023/08/31 00:34:44;;;;;;;;;2.75;2.00;;;;;23.67;80.66;100581.69;2121311;27;46416;-53
2023/08/31 00:35:46;;;;;;;;;2.00;2.00;;;;;23.67;80.51;100582.53;2121856;27;46541;-54
2023/08/31 00:36:46;;;;;;;;;3.75;2.50;;;;;23.67;80.72;100581.69;2117602;27;46901;-54
2023/08/31 00:37:49;;;;;;;;;2.67;2.00;;;;;23.69;80.76;100579.69;2121607;27;46686;-53
2023/08/31 00:38:49;;;;;;;;;4.00;3.00;;;;;23.68;80.74;100573.41;2121754;27;46673;-54
2023/08/31 00:39:52;;;;;;;;;2.67;1.00;;;;;23.67;80.59;100565.41;2119674;27;47249;-54
2023/08/31 00:40:53;;;;;;;;;2.00;2.00;;;;;23.68;80.59;100569.84;2112549;27;46350;-55
2023/08/31 00:41:53;;;;;;;;;1.75;1.00;;;;;23.74;80.74;100566.63;2120246;27;46731;-55
2023/08/31 00:42:53;;;;;;;;;2.00;2.00;;;;;23.74;80.45;100562.09;2121701;27;45891;-54
2023/08/31 00:43:54;;;;;;;;;3.33;3.33;;;;;23.74;80.58;100564.78;2121755;27;45723;-54
2023/08/31 00:44:54;;;;;;;;;1.33;1.33;;;;;23.75;80.49;100557.53;2121821;27;46231;-55
2023/08/31 00:45:58;;;;;;;;;3.00;3.00;;;;;23.75;80.48;100560.22;2121709;27;46404;-55
2023/08/31 00:46:58;;;;;;;;;2.75;2.50;;;;;23.76;80.41;100559.28;2121659;27;46938;-55
2023/08/31 00:47:58;;;;;;;;;3.00;2.00;;;;;23.74;80.27;100570.22;2121516;27;45388;-55
2023/08/31 00:48:59;;;;;;;;;3.33;3.33;;;;;23.66;80.79;100564.56;2121838;27;46219;-54
2023/08/31 00:50:00;;;;;;;;;4.00;4.00;;;;;23.67;81.35;100562.72;2120285;27;45642;-52
2023/08/31 00:51:00;;;;;;;;;3.33;3.33;;;;;23.62;81.11;100565.75;2122964;27;46305;-55
2023/08/31 00:52:01;;;;;;;;;1.00;0.00;;;;;23.59;81.49;100570.56;2123185;27;46791;-53
2023/08/31 00:53:03;;;;;;;;;3.00;1.33;;;;;23.58;81.55;100566.13;2122884;27;46544;-54
2023/08/31 00:54:05;;;;;;;;;4.50;1.25;;;;;23.59;81.72;100570.56;2121948;27;46587;-55
2023/08/31 00:55:07;;;;;;;;;1.00;1.00;;;;;23.58;81.61;100566.13;2123164;27;45652;-53
2023/08/31 00:56:08;;;;;;;;;3.00;3.00;;;;;23.57;81.41;100567.94;2123066;27;46678;-54
2023/08/31 00:57:09;;;;;;;;;1.33;1.33;;;;;23.57;81.59;100565.22;2122374;27;47019;-55
2023/08/31 00:58:10;;;;;;;;;1.50;1.50;;;;;23.56;81.62;100560.81;2122711;27;46949;-55
2023/08/31 00:59:10;;;;;;;;;3.00;2.67;;;;;23.56;81.64;100563.50;2123305;27;46796;-56
2023/08/31 01:00:12;;;;;;;;;3.00;3.00;;;;;23.70;81.77;100557.91;2123174;27;46990;-53
2023/08/31 01:01:27;;;;;;;;;3.25;3.25;;;;;23.57;81.34;100562.53;2105744;27;46713;-56
2023/08/31 01:02:58;;;;;;;;;1.50;1.25;;;;;23.55;81.36;100553.66;2109370;27;47197;-55
2023/08/31 01:04:07;;;;;;;;;4.50;2.00;;;;;23.54;81.55;100553.78;2123053;27;46889;-51
2023/08/31 01:05:41;;;;;;;;;0.50;0.50;;;;;23.54;80.90;100562.78;2115260;27;45997;-55
2023/08/31 01:06:49;;;;;;;;;2.00;2.00;;;;;23.56;81.12;100563.50;2114373;27;46412;-54
2023/08/31 01:08:07;;;;;;;;;1.50;1.50;;;;;23.55;80.94;100560.94;2122132;27;46511;-55
2023/08/31 01:09:30;;;;;;;;;2.00;1.25;;;;;23.53;80.84;100569.19;2122037;27;46303;-54
2023/08/31 01:10:45;;;;;;;;;1.50;1.50;;;;;23.55;80.60;100567.22;2123021;27;45776;-53
2023/08/31 01:12:08;;;;;;;;;2.00;2.00;;;;;23.52;80.62;100564.75;2120933;27;46323;-54
2023/08/31 01:13:14;;;;;;;;;1.00;1.00;;;;;23.61;80.55;100558.63;2123263;27;46618;-54
2023/08/31 01:14:18;;;;;;;;;3.00;2.25;;;;;23.63;80.32;100564.81;2121914;27;46476;-53
2023/08/31 01:15:19;;;;;;;;;2.75;2.75;;;;;23.63;80.15;100566.63;2122799;27;46371;-51
2023/08/31 01:16:24;;;;;;;;;1.67;1.33;;;;;23.58;80.40;100561.56;2123668;27;46880;-53
2023/08/31 01:17:26;;;;;;;;;3.00;3.00;;;;;23.62;80.14;100565.75;2123107;27;46462;-54
2023/08/31 01:18:29;;;;;;;;;2.00;2.00;;;;;23.64;79.81;100565.66;2122694;27;46961;-51
2023/08/31 01:19:29;;;;;;;;;3.50;3.50;;;;;23.57;80.03;100570.66;2123088;27;46713;-54
2023/08/31 01:20:38;;;;;;;;;2.00;2.00;;;;;23.61;80.11;100563.19;2117501;27;45692;-52
2023/08/31 01:21:42;;;;;;;;;3.00;3.00;;;;;23.57;80.21;100567.94;2117167;27;46865;-50
2023/08/31 01:22:57;;;;;;;;;2.00;1.25;;;;;23.56;80.31;100574.34;2123016;27;46789;-54
2023/08/31 01:23:58;;;;;;;;;2.00;2.00;;;;;23.52;80.46;100572.88;2122760;27;45530;-55
2023/08/31 01:25:03;;;;;;;;;2.00;2.00;;;;;23.52;80.77;100577.44;2118942;27;46384;-54
2023/08/31 01:26:04;;;;;;;;;1.50;1.50;;;;;23.49;80.59;100573.09;2114659;27;46239;-54
2023/08/31 01:27:05;;;;;;;;;2.33;2.33;;;;;23.49;80.41;100576.66;2121935;27;46491;-50
2023/08/31 01:28:06;;;;;;;;;2.67;2.00;;;;;23.48;80.21;100574.94;2123029;27;46397;-54
2023/08/31 01:29:06;;;;;;;;;1.00;1.00;;;;;23.49;80.71;100575.78;2123210;27;46864;-51
2023/08/31 01:30:08;;;;;;;;;1.67;1.67;;;;;23.47;80.64;100581.34;2113795;27;46621;-51
2023/08/31 01:31:09;;;;;;;;;2.50;1.75;;;;;23.52;80.37;100580.13;2113654;27;47017;-53
2023/08/31 01:32:09;;;;;;;;;2.00;2.00;;;;;23.52;80.45;100583.72;2122897;27;46725;-52
2023/08/31 01:33:10;;;;;;;;;1.00;1.00;;;;;23.51;80.47;100576.56;2123070;27;46755;-50
2023/08/31 01:34:10;;;;;;;;;2.33;2.33;;;;;23.49;80.06;100575.78;2123276;27;46632;-50
2023/08/31 01:35:14;;;;;;;;;2.00;2.00;;;;;23.47;80.60;100578.63;2122828;27;45654;-51
2023/08/31 01:36:26;;;;;;;;;1.75;1.75;;;;;23.44;80.44;100578.88;2120179;27;46463;-53
2023/08/31 01:37:45;;;;;;;;;2.75;2.75;;;;;23.44;80.73;100575.31;2114343;27;48080;-54
2023/08/31 01:38:50;;;;;;;;;1.25;1.00;;;;;23.44;80.83;100581.56;2114850;27;45949;-55
2023/08/31 01:39:59;;;;;;;;;3.50;2.00;;;;;23.43;80.78;100577.16;2118166;27;47017;-53
2023/08/31 01:41:10;;;;;;;;;2.25;1.50;;;;;23.43;80.61;100579.84;2118467;27;46367;-54
2023/08/31 01:42:13;;;;;;;;;1.25;1.25;;;;;23.43;80.78;100573.56;2121668;27;45578;-53
2023/08/31 01:43:15;;;;;;;;;1.50;1.50;;;;;23.41;80.53;100572.84;2122735;27;46870;-54
2023/08/31 01:44:18;;;;;;;;;2.75;2.75;;;;;23.42;80.89;100582.69;2122600;27;46651;-52
2023/08/31 01:45:21;;;;;;;;;1.75;1.75;;;;;23.37;80.69;100579.44;2122541;27;46422;-53
2023/08/31 01:46:22;;;;;;;;;1.00;1.00;;;;;23.34;80.85;100579.69;2111319;27;46182;-50
2023/08/31 01:47:23;;;;;;;;;3.67;3.00;;;;;23.47;81.11;100583.19;2112709;27;46464;-51
2023/08/31 01:48:23;;;;;;;;;1.00;1.00;;;;;23.51;80.60;100579.28;2114722;27;46695;-53
2023/08/31 01:49:24;;;;;;;;;3.00;3.00;;;;;23.50;80.50;100588.34;2116548;27;45450;-51
2023/08/31 01:50:24;;;;;;;;;4.00;2.00;;;;;23.40;80.25;100579.25;2115895;27;46656;-53
2023/08/31 01:51:24;;;;;;;;;1.67;1.67;;;;;23.34;81.02;100588.69;2122789;27;46625;-52
2023/08/31 01:52:25;;;;;;;;;2.00;1.00;;;;;23.32;81.05;100585.22;2121033;27;46465;-52
2023/08/31 01:53:25;;;;;;;;;2.00;1.33;;;;;23.30;81.32;100581.78;2114644;27;46136;-55
2023/08/31 01:54:26;;;;;;;;;1.67;1.33;;;;;23.42;81.39;100580.84;2121313;27;45685;-54
2023/08/31 01:55:26;;;;;;;;;1.33;0.00;;;;;23.37;80.47;100571.31;2122913;27;46134;-53
2023/08/31 01:56:26;;;;;;;;;1.67;1.67;;;;;23.30;80.74;100583.63;2122704;27;46265;-53
2023/08/31 01:57:27;;;;;;;;;3.00;3.00;;;;;23.27;81.38;100573.03;2118275;27;45807;-51
2023/08/31 01:58:27;;;;;;;;;2.00;2.00;;;;;23.28;81.32;100575.63;2114967;27;45648;-53
2023/08/31 01:59:27;;;;;;;;;2.33;2.33;;;;;23.39;81.16;100572.09;2121221;27;46571;-52
2023/08/31 02:00:28;;;;;;;;;2.00;1.00;;;;;23.28;81.38;100577.47;2122704;27;46267;-53
2023/08/31 02:01:29;;;;;;;;;1.33;1.33;;;;;23.27;81.26;100576.63;2121747;27;46998;-50
2023/08/31 02:02:29;;;;;;;;;2.00;2.00;;;;;23.27;81.40;100578.47;2122217;27;46874;-53
2023/08/31 02:03:30;;;;;;;;;1.00;1.00;;;;;23.25;81.72;100574.97;2111292;27;45505;-53
2023/08/31 02:04:30;;;;;;;;;1.00;1.00;;;;;23.25;81.40;100574.97;2115295;27;46510;-54
2023/08/31 02:05:31;;;;;;;;;1.00;1.00;;;;;23.34;81.69;100568.88;2113341;27;46752;-55
2023/08/31 02:06:31;;;;;;;;;2.00;2.00;;;;;23.39;81.01;100572.97;2113523;27;46505;-54
2023/08/31 02:07:31;;;;;;;;;2.00;1.00;;;;;23.40;80.84;100569.28;2113489;27;46249;-53
2023/08/31 02:08:32;;;;;;;;;2.00;2.00;;;;;23.41;80.66;100575.53;2113351;27;46461;-52
2023/08/31 02:09:32;;;;;;;;;1.00;1.00;;;;;23.42;81.19;100569.16;2122510;27;46641;-56
2023/08/31 02:10:33;;;;;;;;;1.00;1.00;;;;;23.44;80.77;100567.19;2113912;27;45046;-55
2023/08/31 02:11:37;;;;;;;;;2.33;2.33;;;;;23.43;80.40;100573.56;2113741;27;46155;-55
2023/08/31 02:12:37;;;;;;;;;1.00;1.00;;;;;23.44;80.62;100572.59;2115828;27;45534;-55
2023/08/31 02:13:38;;;;;;;;;1.00;1.00;;;;;23.43;80.88;100571.72;2122632;27;46419;-56
2023/08/31 02:14:38;;;;;;;;;1.67;1.67;;;;;23.43;80.61;100569.03;2126711;27;46177;-56
2023/08/31 02:15:39;;;;;;;;;2.67;2.67;;;;;23.42;80.74;100566.44;2121338;27;46768;-55
2023/08/31 02:16:39;;;;;;;;;1.00;0.00;;;;;23.39;80.60;100572.97;2111368;27;46385;-55
2023/08/31 02:17:40;;;;;;;;;3.00;1.33;;;;;23.39;80.74;100567.53;2112989;27;48170;-55
2023/08/31 02:18:41;;;;;;;;;1.50;1.50;;;;;23.38;80.61;100565.81;2117571;27;46756;-53
2023/08/31 02:19:42;;;;;;;;;1.00;1.00;;;;;23.39;80.83;100572.09;2122653;27;46131;-52
2023/08/31 02:20:42;;;;;;;;;1.67;1.00;;;;;23.37;80.86;100577.59;2122800;27;46360;-55
2023/08/31 02:21:43;;;;;;;;;1.00;1.00;;;;;23.37;80.86;100571.31;2122905;27;45870;-55
2023/08/31 02:22:43;;;;;;;;;1.00;1.00;;;;;23.35;80.93;100571.44;2122263;27;45226;-56
2023/08/31 02:23:43;;;;;;;;;1.67;0.67;;;;;23.34;80.95;100569.72;2122292;27;46444;-55
2023/08/31 02:24:44;;;;;;;;;1.00;1.00;;;;;23.34;80.95;100566.16;2122673;27;46149;-54
2023/08/31 02:25:44;;;;;;;;;1.00;1.00;;;;;23.34;81.27;100572.44;2120109;27;46298;-54
2023/08/31 02:26:45;;;;;;;;;4.00;2.00;;;;;23.30;80.95;100565.53;2114119;27;44955;-53
2023/08/31 02:27:45;;;;;;;;;2.00;2.00;;;;;23.31;81.00;100567.25;2119272;27;46535;-53
2023/08/31 02:28:45;;;;;;;;;1.33;1.00;;;;;23.11;81.39;100565.22;2122224;27;46166;-55
2023/08/31 02:29:45;;;;;;;;;1.00;1.00;;;;;23.31;81.38;100564.56;2122849;27;46367;-53
2023/08/31 02:30:46;;;;;;;;;1.00;1.00;;;;;23.32;81.31;100568.13;2122716;27;46371;-55
2023/08/31 02:31:46;;;;;;;;;1.67;1.67;;;;;23.34;81.18;100566.16;2122769;27;45488;-55
2023/08/31 02:32:47;;;;;;;;;3.00;2.33;;;;;23.33;81.16;100567.13;2118313;27;46747;-55
2023/08/31 02:33:47;;;;;;;;;2.67;2.67;;;;;23.33;81.18;100570.72;2122586;27;46405;-54
2023/08/31 02:34:49;;;;;;;;;2.33;1.00;;;;;23.33;81.54;100572.56;2122277;27;46615;-53
2023/08/31 02:35:49;;;;;;;;;1.25;1.25;;;;;23.35;81.20;100571.44;2122533;27;46875;-54
2023/08/31 02:36:49;;;;;;;;;3.33;3.33;;;;;23.34;81.23;100566.16;2120300;27;45433;-55
2023/08/31 02:37:50;;;;;;;;;1.00;0.00;;;;;23.34;81.21;100571.56;2122698;27;46039;-54
2023/08/31 02:38:50;;;;;;;;;3.00;2.00;;;;;23.35;81.35;100570.59;2122894;27;45771;-55
2023/08/31 02:39:50;;;;;;;;;3.67;2.67;;;;;23.34;81.42;100574.28;2121283;27;46803;-55
2023/08/31 02:40:51;;;;;;;;;1.33;1.00;;;;;23.35;81.35;100578.72;2114920;27;46449;-51
2023/08/31 02:41:51;;;;;;;;;2.00;2.00;;;;;23.35;81.35;100576.88;2113465;27;47190;-56
2023/08/31 02:42:54;;;;;;;;;2.00;2.00;;;;;23.36;81.37;100577.72;2113723;27;45854;-55
2023/08/31 02:43:55;;;;;;;;;2.00;2.00;;;;;23.35;81.46;100570.59;2122458;27;46902;-52
2023/08/31 02:44:55;;;;;;;;;1.33;1.33;;;;;23.36;81.45;100575.03;2116542;27;46500;-52
2023/08/31 02:46:02;;;;;;;;;1.00;1.00;;;;;23.35;81.59;100563.31;2105132;28;45576;-54
2023/08/31 02:47:03;;;;;;;;;0.50;0.50;;;;;23.34;81.71;100569.72;2114484;27;46554;-53
2023/08/31 02:48:04;;;;;;;;;0.67;0.67;;;;;23.34;81.45;100580.56;2122269;27;46571;-55
2023/08/31 02:49:04;;;;;;;;;1.75;1.25;;;;;23.33;81.58;100569.84;2122482;27;46556;-53
2023/08/31 02:50:05;;;;;;;;;2.67;2.67;;;;;23.35;81.49;100579.56;2117534;27;46056;-50
2023/08/31 02:51:06;;;;;;;;;1.25;1.00;;;;;23.36;81.89;100577.72;2120996;27;45807;-52
2023/08/31 02:52:06;;;;;;;;;0.67;0.67;;;;;23.35;81.36;100578.72;2106534;27;46425;-55
2023/08/31 02:53:06;;;;;;;;;1.33;1.33;;;;;23.35;81.46;100578.72;2106571;27;46066;-55
2023/08/31 02:54:07;;;;;;;;;2.33;2.33;;;;;23.36;81.40;100573.16;2122564;27;46042;-53
2023/08/31 02:55:07;;;;;;;;;2.00;2.00;;;;;23.35;81.52;100576.00;2122162;27;46381;-54
2023/08/31 02:56:07;;;;;;;;;1.00;1.00;;;;;23.35;81.57;100570.59;2103723;28;45765;-56
2023/08/31 02:57:08;;;;;;;;;2.67;1.67;;;;;23.35;81.65;100574.16;2104444;28;45573;-55
2023/08/31 02:58:08;;;;;;;;;1.00;1.00;;;;;23.35;81.74;100573.28;2121968;27;46758;-54
2023/08/31 02:59:09;;;;;;;;;0.00;0.00;;;;;23.31;81.53;100578.09;2122576;27;45661;-54
2023/08/31 03:00:12;;;;;;;;;1.00;1.00;;;;;23.33;81.83;100572.56;2113242;27;46293;-56
2023/08/31 03:01:14;;;;;;;;;2.00;0.50;;;;;23.34;81.65;100574.28;2113849;27;46968;-54
2023/08/31 03:02:14;;;;;;;;;1.25;1.25;;;;;23.33;81.65;100575.25;2117484;27;46395;-53
2023/08/31 03:03:18;;;;;;;;;1.67;1.67;;;;;23.31;81.82;100572.69;2119780;27;46247;-56
2023/08/31 03:04:19;;;;;;;;;1.00;1.00;;;;;23.34;81.92;100574.28;2119081;27;45350;-53
2023/08/31 03:05:21;;;;;;;;;3.00;3.00;;;;;23.33;81.63;100572.56;2119228;27;45857;-52
2023/08/31 03:06:21;;;;;;;;;3.50;3.00;;;;;23.32;81.76;100576.25;2113955;27;46353;-55
2023/08/31 03:07:21;;;;;;;;;7.33;2.00;;;;;23.33;81.68;100570.72;2110325;27;46566;-55
2023/08/31 03:08:22;;;;;;;;;2.00;2.00;;;;;23.32;81.76;100570.84;2113281;27;46621;-55
2023/08/31 03:09:22;;;;;;;;;2.67;2.67;;;;;23.32;82.05;100562.72;2122196;27;46567;-55
2023/08/31 03:10:23;;;;;;;;;1.67;1.67;;;;;23.31;82.08;100567.25;2122785;27;45768;-53
2023/08/31 03:11:23;;;;;;;;;2.00;2.00;;;;;23.30;81.91;100565.53;2113358;27;46396;-56
2023/08/31 03:12:23;;;;;;;;;1.00;1.00;;;;;23.29;81.95;100562.94;2105007;28;46784;-54
2023/08/31 03:13:23;;;;;;;;;1.00;1.00;;;;;23.30;82.13;100572.81;2113175;27;45420;-54
2023/08/31 03:14:24;;;;;;;;;1.00;1.00;;;;;23.29;82.04;100568.38;2122614;27;46247;-53
2023/08/31 03:15:24;;;;;;;;;2.00;2.00;;;;;23.29;81.85;100571.94;2122650;27;46365;-55
2023/08/31 03:16:24;;;;;;;;;2.00;1.00;;;;;23.28;82.11;100575.63;2122708;27;45705;-55
2023/08/31 03:17:25;;;;;;;;;1.00;1.00;;;;;23.26;82.37;100577.59;2122598;27;46073;-53
2023/08/31 03:18:25;;;;;;;;;1.67;1.67;;;;;23.27;82.27;100568.50;2123094;27;45027;-55
2023/08/31 03:19:26;;;;;;;;;1.67;1.67;;;;;23.27;82.29;100562.22;2121925;27;46688;-54
2023/08/31 03:20:26;;;;;;;;;0.00;0.00;;;;;23.27;82.11;100565.78;2122219;27;46475;-55
2023/08/31 03:21:26;;;;;;;;;1.00;1.00;;;;;23.26;82.18;100566.75;2120169;27;46679;-55
2023/08/31 03:22:27;;;;;;;;;1.00;1.00;;;;;23.26;82.21;100561.34;2121384;27;47008;-52
2023/08/31 03:23:29;;;;;;;;;0.33;0.33;;;;;23.26;82.36;100560.50;2122028;27;46273;-54
2023/08/31 03:24:31;;;;;;;;;0.25;0.25;;;;;23.25;82.44;100556.91;2121028;27;45576;-53
2023/08/31 03:25:31;;;;;;;;;1.25;1.25;;;;;23.25;82.37;100558.72;2122223;27;46749;-54
2023/08/31 03:26:31;;;;;;;;;1.00;1.00;;;;;23.24;82.37;100548.88;2121916;27;46434;-55
2023/08/31 03:27:32;;;;;;;;;1.33;1.33;;;;;23.24;82.38;100551.59;2122687;27;46820;-55
2023/08/31 03:28:33;;;;;;;;;1.33;1.33;;;;;23.25;82.63;100562.34;2113092;27;46306;-55
2023/08/31 03:29:34;;;;;;;;;1.67;1.67;;;;;23.24;82.75;100559.72;2113236;27;46578;-55
2023/08/31 03:30:34;;;;;;;;;2.50;2.50;;;;;23.28;82.42;100566.66;2122598;27;46602;-54
2023/08/31 03:31:34;;;;;;;;;3.67;2.33;;;;;23.28;82.31;100564.78;2122220;27;48290;-55
2023/08/31 03:32:35;;;;;;;;;1.00;1.00;;;;;23.29;82.21;100562.94;2122124;27;46365;-54
2023/08/31 03:33:35;;;;;;;;;1.00;1.00;;;;;23.27;82.10;100568.50;2122112;27;46070;-52
2023/08/31 03:34:36;;;;;;;;;0.67;0.67;;;;;23.25;82.52;100559.63;2121990;27;45896;-52
2023/08/31 03:35:36;;;;;;;;;2.00;1.00;;;;;23.17;82.60;100564.75;2122281;27;46249;-54
2023/08/31 03:36:37;;;;;;;;;1.00;1.00;;;;;23.23;82.73;100561.56;2116913;27;46189;-56
2023/08/31 03:37:37;;;;;;;;;2.00;2.00;;;;;23.23;83.05;100558.00;2115258;27;45490;-55
2023/08/31 03:38:38;;;;;;;;;0.33;0.33;;;;;23.24;83.04;100559.72;2122013;27;46245;-52
2023/08/31 03:39:40;;;;;;;;;2.67;2.67;;;;;23.25;82.75;100558.72;2111265;27;46240;-56
2023/08/31 03:40:41;;;;;;;;;2.75;2.00;;;;;23.25;82.61;100559.63;2113208;27;46703;-56
2023/08/31 03:41:41;;;;;;;;;1.67;1.67;;;;;23.27;82.97;100559.50;2119578;27;46797;-53
2023/08/31 03:42:41;;;;;;;;;1.00;1.00;;;;;23.26;82.61;100555.94;2121739;27;46128;-52
2023/08/31 03:43:42;;;;;;;;;3.67;3.67;;;;;23.27;82.78;100554.94;2104174;28;46530;-52
2023/08/31 03:44:42;;;;;;;;;2.00;2.00;;;;;23.25;82.78;100554.22;2103597;28;47156;-53
2023/08/31 03:45:43;;;;;;;;;4.33;2.33;;;;;23.26;82.85;100557.78;2122124;27;46299;-52
2023/08/31 03:46:43;;;;;;;;;1.00;1.00;;;;;23.27;82.79;100559.50;2121649;27;46496;-54
2023/08/31 03:47:44;;;;;;;;;2.00;2.00;;;;;23.19;82.87;100555.53;2122914;27;45875;-55
2023/08/31 03:48:44;;;;;;;;;3.67;3.67;;;;;23.26;82.61;100561.34;2121551;27;46599;-54
2023/08/31 03:49:45;;;;;;;;;4.00;4.00;;;;;23.25;83.00;100553.31;2122102;27;46440;-53
2023/08/31 03:50:49;;;;;;;;;1.00;1.00;;;;;23.25;82.83;100559.63;2118217;27;46230;-53
2023/08/31 03:51:49;;;;;;;;;3.00;3.00;;;;;23.25;83.37;100562.34;2113854;27;46766;-55
2023/08/31 03:52:49;;;;;;;;;3.00;3.00;;;;;23.25;82.97;100554.22;2114266;27;46621;-52
2023/08/31 03:53:50;;;;;;;;;3.00;3.00;;;;;23.24;82.98;100552.47;2112863;27;46331;-54
2023/08/31 03:54:52;;;;;;;;;4.67;3.00;;;;;23.25;82.84;100554.22;2112831;27;46332;-53
2023/08/31 03:55:52;;;;;;;;;3.00;3.00;;;;;23.26;83.16;100555.06;2122029;27;45608;-53
2023/08/31 03:56:52;;;;;;;;;4.00;4.00;;;;;23.27;82.93;100554.09;2121895;27;46218;-52
2023/08/31 03:57:53;;;;;;;;;3.00;3.00;;;;;23.28;82.81;100558.53;2122065;27;47122;-56
2023/08/31 03:58:53;;;;;;;;;7.67;3.00;;;;;23.27;82.96;100565.78;2120790;27;46890;-55
2023/08/31 03:59:54;;;;;;;;;3.00;3.00;;;;;23.26;83.04;100561.34;2122093;27;46448;-51
2023/08/31 04:00:54;;;;;;;;;3.67;2.00;;;;;23.26;82.90;100557.78;2121477;27;46592;-53
2023/08/31 04:01:57;;;;;;;;;2.00;2.00;;;;;23.25;82.96;100556.91;2121841;27;46258;-52
2023/08/31 04:02:58;;;;;;;;;2.80;2.80;;;;;23.24;83.04;100551.59;2121600;27;45905;-53
2023/08/31 04:03:58;;;;;;;;;4.00;2.67;;;;;23.23;83.28;100549.88;2121011;27;46480;-54
2023/08/31 04:04:58;;;;;;;;;3.00;3.00;;;;;23.19;83.34;100552.81;2112433;27;46021;-54
2023/08/31 04:05:59;;;;;;;;;4.33;1.67;;;;;23.24;83.21;100559.72;2104215;28;46585;-54
2023/08/31 04:07:00;;;;;;;;;3.33;2.67;;;;;23.25;83.21;100547.91;2112435;27;46610;-52
2023/08/31 04:08:00;;;;;;;;;0.75;0.75;;;;;23.23;83.17;100558.84;2113551;27;46959;-56
2023/08/31 04:09:01;;;;;;;;;4.33;3.67;;;;;23.23;83.20;100555.28;2120404;27;45930;-53
2023/08/31 04:10:02;;;;;;;;;2.00;2.00;;;;;23.23;82.97;100555.28;2121943;27;45680;-52
2023/08/31 04:11:03;;;;;;;;;2.75;2.00;;;;;23.22;83.15;100559.84;2122024;27;46186;-56
2023/08/31 04:12:03;;;;;;;;;3.33;1.67;;;;;23.22;83.12;100561.69;2121812;27;46535;-51
2023/08/31 04:13:04;;;;;;;;;3.67;2.67;;;;;23.20;83.11;100562.66;2121531;27;46649;-53
2023/08/31 04:14:04;;;;;;;;;3.00;3.00;;;;;23.22;83.15;100562.53;2122045;27;46369;-52
2023/08/31 04:15:05;;;;;;;;;3.00;3.00;;;;;23.22;83.27;100561.69;2121254;27;46080;-52
2023/08/31 04:16:05;;;;;;;;;4.00;2.25;;;;;23.20;83.07;100562.66;2121327;27;45532;-52
2023/08/31 04:17:06;;;;;;;;;3.33;3.33;;;;;23.23;83.15;100560.69;2120258;27;46228;-54
2023/08/31 04:18:06;;;;;;;;;3.67;2.00;;;;;23.22;83.17;100567.97;2121722;27;46747;-53
2023/08/31 04:19:06;;;;;;;;;1.33;1.33;;;;;23.21;83.19;100568.94;2121500;27;46619;-53
2023/08/31 04:20:07;;;;;;;;;1.00;1.00;;;;;23.20;83.30;100565.38;2121855;27;45896;-52
2023/08/31 04:21:08;;;;;;;;;3.75;3.00;;;;;23.19;83.25;100569.06;2104168;28;46298;-52
2023/08/31 04:22:08;;;;;;;;;2.00;2.00;;;;;23.20;83.18;100567.22;2103843;27;46661;-56
2023/08/31 04:23:09;;;;;;;;;2.00;2.00;;;;;23.20;83.50;100568.09;2121870;27;46332;-52
2023/08/31 04:24:10;;;;;;;;;4.33;2.33;;;;;23.16;83.48;100565.75;2112872;27;46495;-53
2023/08/31 04:25:10;;;;;;;;;1.50;1.50;;;;;23.18;83.58;100566.47;2113323;27;46891;-54
2023/08/31 04:26:12;;;;;;;;;1.67;1.00;;;;;23.16;83.33;100563.91;2116014;27;46641;-52
2023/08/31 04:27:13;;;;;;;;;2.00;2.00;;;;;23.16;83.58;100561.19;2123008;27;46491;-52
2023/08/31 04:28:14;;;;;;;;;4.33;2.67;;;;;23.17;83.38;100560.19;2123179;27;46906;-55
2023/08/31 04:29:14;;;;;;;;;1.75;1.75;;;;;23.14;83.68;100563.16;2123374;27;46366;-55
2023/08/31 04:30:15;;;;;;;;;1.67;1.67;;;;;23.13;83.66;100564.13;2116353;27;46579;-55
2023/08/31 04:31:15;;;;;;;;;4.25;3.00;;;;;23.10;84.04;100567.06;2118056;27;46359;-55
2023/08/31 04:32:16;;;;;;;;;2.00;2.00;;;;;23.07;84.03;100561.88;2123812;27;45720;-54
2023/08/31 04:33:17;;;;;;;;;2.33;1.00;;;;;23.06;84.24;100559.28;2123397;27;45490;-55
2023/08/31 04:34:17;;;;;;;;;5.00;3.00;;;;;23.06;84.09;100562.00;2114363;27;45247;-55
2023/08/31 04:35:17;;;;;;;;;5.33;4.00;;;;;23.05;84.27;100565.69;2114158;27;46396;-55
2023/08/31 04:36:18;;;;;;;;;2.33;2.33;;;;;23.06;84.74;100567.41;2121338;27;46526;-53
2023/08/31 04:37:18;;;;;;;;;2.00;2.00;;;;;23.02;84.57;100568.63;2123680;27;45552;-54
2023/08/31 04:38:18;;;;;;;;;2.00;2.00;;;;;23.13;84.93;100574.09;2115556;27;46331;-56
2023/08/31 04:39:19;;;;;;;;;3.00;2.00;;;;;23.16;83.87;100563.91;2115787;27;46276;-55
2023/08/31 04:40:19;;;;;;;;;3.00;2.00;;;;;23.18;84.12;100567.34;2122841;27;46212;-56
2023/08/31 04:41:19;;;;;;;;;2.00;2.00;;;;;23.20;84.34;100570.78;2117348;27;46592;-56
2023/08/31 04:42:20;;;;;;;;;3.67;2.67;;;;;23.22;84.26;100569.81;2115125;27;46443;-51
2023/08/31 04:43:20;;;;;;;;;2.67;2.00;;;;;23.22;84.25;100572.50;2123010;27;46487;-55
2023/08/31 04:44:20;;;;;;;;;0.00;0.00;;;;;23.20;84.17;100578.91;2120901;27;46894;-51
2023/08/31 04:45:21;;;;;;;;;3.00;3.00;;;;;23.19;84.37;100577.19;2115302;27;45472;-54
2023/08/31 04:46:21;;;;;;;;;3.00;2.00;;;;;23.20;84.54;100581.63;2119550;27;46061;-53
2023/08/31 04:47:21;;;;;;;;;3.00;3.00;;;;;23.22;84.40;100581.50;2123402;27;45514;-56